Time;durP1;ratioP1;P1;durP2;ratioP2;P2;SDS_P1;SDS_P2;PMS_P1;PMS_P2;Temp;Humidity;BMP_temperature;BMP_pressure;BME280_temperature;BME280_humidity;BME280_pressure;Samples;Min_cycle;Max_cycle;Signal;HPM_P1;HPM_P2
2022/03/29 00:02:31;;;;;;;19.62;10.65;;;;;;;14.46;40.41;100215.81;5362123;32;34120;-62
2022/03/29 00:05:34;;;;;;;20.47;10.90;;;;;;;14.26;40.64;100213.44;5374103;32;34099;-71
2022/03/29 00:08:36;;;;;;;;;;;;;;;14.81;39.39;100210.25;5360308;32;44867;-71
2022/03/29 00:11:38;;;;;;;21.23;11.17;;;;;;;14.61;39.79;100204.34;5374710;32;35255;-62
2022/03/29 00:14:41;;;;;;;20.43;10.20;;;;;;;13.64;42.16;100196.66;5359258;32;34942;-63
2022/03/29 00:17:43;;;;;;;18.90;10.70;;;;;;;13.55;42.48;100198.03;5357552;32;34194;-70
2022/03/29 00:20:45;;;;;;;18.07;10.77;;;;;;;13.44;42.65;100187.19;5361174;32;34658;-62
2022/03/29 00:23:47;;;;;;;21.20;10.93;;;;;;;13.35;42.87;100190.31;5362103;32;35773;-63
2022/03/29 00:26:49;;;;;;;23.43;10.93;;;;;;;13.20;43.25;100189.31;5376494;32;35439;-62
2022/03/29 00:29:51;;;;;;;19.83;10.17;;;;;;;13.87;41.59;100176.91;5360323;32;34583;-71
2022/03/29 00:32:53;;;;;;;20.97;10.27;;;;;;;13.40;42.79;100181.22;5371415;32;35356;-62
2022/03/29 00:35:55;;;;;;;23.37;11.10;;;;;;;13.14;43.36;100169.41;5357693;32;34151;-64
2022/03/29 00:38:58;;;;;;;21.00;10.43;;;;;;;13.36;42.88;100168.28;5350691;32;35464;-63
2022/03/29 00:42:00;;;;;;;19.97;11.60;;;;;;;13.07;43.38;100165.34;5347807;32;34693;-71
2022/03/29 00:45:04;;;;;;;22.80;11.43;;;;;;;13.61;42.12;100159.88;5345279;32;34152;-63
2022/03/29 00:48:09;;;;;;;21.57;10.60;;;;;;;13.40;42.85;100152.19;5370429;32;46012;-63
2022/03/29 00:51:11;;;;;;;22.50;10.27;;;;;;;12.98;44.24;100164.06;5356300;32;34107;-68
2022/03/29 00:54:13;;;;;;;23.23;10.37;;;;;;;13.18;43.60;100152.44;5377442;32;35307;-63
2022/03/29 00:57:16;;;;;;;26.13;10.83;;;;;;;12.85;44.15;100155.09;5358944;32;34515;-72
2022/03/29 01:00:18;;;;;;;19.20;9.80;;;;;;;12.62;44.74;100155.41;5362068;32;34666;-63
2022/03/29 01:03:20;;;;;;;21.13;10.23;;;;;;;12.70;44.52;100148.84;5375319;32;35981;-71
2022/03/29 01:06:23;;;;;;;25.07;10.23;;;;;;;12.69;44.53;100146.28;5358524;32;34226;-63
2022/03/29 01:09:26;;;;;;;19.93;10.17;;;;;;;12.96;44.00;100130.78;5376968;32;33650;-69
2022/03/29 01:12:31;;;;;;;20.02;10.75;;;;;;;13.02;43.58;100125.19;5361960;32;34236;-71
2022/03/29 01:15:36;;;;;;;20.73;10.10;;;;;;;13.63;41.92;100110.47;5371855;32;35421;-64
2022/03/29 01:18:38;;;;;;;17.73;10.37;;;;;;;13.77;41.72;100111.37;5356722;32;44574;-62
2022/03/29 01:21:41;;;;;;;21.83;10.77;;;;;;;13.99;40.86;100120.75;5327740;32;34010;-63
2022/03/29 01:24:46;;;;;;;22.02;10.23;;;;;;;12.19;45.07;100123.34;5363472;32;34179;-69
2022/03/29 01:27:49;;;;;;;22.60;10.77;;;;;;;12.26;45.16;100124.72;5342172;32;34655;-70
2022/03/29 01:30:51;;;;;;;;;;;;;;;11.99;45.73;100128.75;5363663;32;35648;-63
2022/03/29 01:33:54;;;;;;;22.13;10.80;;;;;;;12.32;45.09;100116.50;5368301;32;33673;-71
2022/03/29 01:36:56;;;;;;;26.58;11.27;;;;;;;12.19;45.27;100118.91;5368402;32;35219;-71
2022/03/29 01:39:59;;;;;;;24.20;10.60;;;;;;;11.77;46.55;100119.19;5341514;32;35756;-71
2022/03/29 01:43:02;;;;;;;23.27;9.87;;;;;;;12.05;46.30;100118.75;5358328;32;35826;-71
2022/03/29 01:46:07;;;;;;;21.60;10.50;;;;;;;11.81;46.71;100109.41;5371482;32;44738;-64
2022/03/29 01:49:10;;;;;;;23.70;10.80;;;;;;;12.19;45.99;100110.16;5358674;32;34019;-63
2022/03/29 01:52:13;;;;;;;20.50;10.57;;;;;;;13.53;42.24;100084.56;5372166;32;34184;-62
2022/03/29 01:55:17;;;;;;;25.17;11.23;;;;;;;13.27;42.75;100070.19;5359025;32;34268;-71
2022/03/29 01:58:19;;;;;;;20.53;11.03;;;;;;;13.14;42.97;100068.28;5361933;32;34389;-69
2022/03/29 02:01:21;;;;;;;18.10;10.60;;;;;;;13.37;42.53;100067.87;5360820;32;34225;-70
2022/03/29 02:04:26;;;;;;;20.27;10.63;;;;;;;12.73;43.99;100080.09;5354676;32;34615;-63
2022/03/29 02:07:28;;;;;;;19.47;10.37;;;;;;;12.19;45.27;100076.75;5374290;32;34147;-71
2022/03/29 02:10:30;;;;;;;19.33;10.60;;;;;;;13.51;42.13;100065.31;5356810;32;35149;-70
2022/03/29 02:13:33;;;;;;;20.97;10.93;;;;;;;12.39;44.46;100061.72;5376707;32;34125;-63
2022/03/29 02:16:35;;;;;;;20.98;11.65;;;;;;;12.06;45.67;100059.88;5341301;32;44542;-71
2022/03/29 02:19:38;;;;;;;21.67;10.93;;;;;;;12.71;44.30;100044.22;5362829;32;34188;-62
2022/03/29 02:22:41;;;;;;;21.00;10.67;;;;;;;12.41;44.76;100042.25;5372745;32;35387;-71
2022/03/29 02:25:47;;;;;;;23.30;11.10;;;;;;;12.78;43.76;100034.19;5359304;32;35436;-71
2022/03/29 02:28:49;;;;;;;20.73;10.87;;;;;;;12.58;44.37;100032.59;5374741;32;35625;-71
2022/03/29 02:31:51;;;;;;;22.47;11.33;;;;;;;12.45;44.69;100030.63;5361446;32;34221;-63
2022/03/29 02:34:53;;;;;;;19.47;11.40;;;;;;;12.84;43.69;100033.84;5375415;32;34261;-71
2022/03/29 02:37:56;;;;;;;21.07;10.37;;;;;;;12.98;43.28;100034.81;5354779;32;35788;-71
2022/03/29 02:40:58;;;;;;;23.17;11.67;;;;;;;12.78;43.63;100037.66;5346252;32;35272;-71
2022/03/29 02:44:00;;;;;;;23.73;10.60;;;;;;;12.92;43.48;100043.03;5373304;32;35283;-62
2022/03/29 02:47:03;;;;;;;18.70;10.67;;;;;;;12.86;43.40;100038.09;5359614;32;34077;-71
2022/03/29 02:50:05;;;;;;;20.90;11.33;;;;;;;12.34;44.82;100040.84;5374322;32;44528;-62
2022/03/29 02:53:08;;;;;;;20.63;10.70;;;;;;;11.68;46.50;100047.72;5360497;32;35302;-62
2022/03/29 02:56:10;;;;;;;20.88;11.68;;;;;;;11.57;47.18;100037.69;5371682;32;34161;-62
2022/03/29 02:59:15;;;;;;;20.77;11.10;;;;;;;11.69;46.31;100033.63;5362850;32;34337;-62
2022/03/29 03:02:18;;;;;;;23.73;11.30;;;;;;;12.20;45.09;100030.19;5362714;32;34111;-62
2022/03/29 03:05:24;;;;;;;21.90;11.20;;;;;;;11.55;47.20;100032.53;5371010;32;34138;-72
2022/03/29 03:08:27;;;;;;;20.77;11.13;;;;;;;11.38;47.57;100033.31;5360503;32;34169;-70
2022/03/29 03:11:30;;;;;;;21.80;10.82;;;;;;;12.36;44.88;100028.44;5377415;32;34589;-62
2022/03/29 03:14:32;;;;;;;28.92;11.30;;;;;;;12.27;45.01;100023.66;5357866;32;34191;-63
2022/03/29 03:17:34;;;;;;;22.40;11.57;;;;;;;11.86;46.13;100026.63;5369168;32;44665;-71
2022/03/29 03:20:37;;;;;;;23.02;11.27;;;;;;;11.79;46.30;100027.84;5352831;32;35774;-71
2022/03/29 03:23:39;;;;;;;19.97;11.73;;;;;;;11.35;47.12;100028.22;5359184;32;34284;-63
2022/03/29 03:26:41;;;;;;;19.83;10.73;;;;;;;11.21;48.02;100025.41;5375291;32;35780;-62
2022/03/29 03:29:44;;;;;;;25.77;11.50;;;;;;;12.12;45.78;100013.94;5359959;32;35281;-62
2022/03/29 03:32:49;;;;;;;21.85;11.02;;;;;;;12.72;43.81;100012.47;5362521;32;35943;-72
2022/03/29 03:35:52;;;;;;;20.67;10.73;;;;;;;12.18;45.23;100005.72;5362416;32;34127;-71
2022/03/29 03:38:55;;;;;;;21.17;11.00;;;;;;;12.01;45.45;100006.56;5357350;32;35797;-71
2022/03/29 03:41:57;;;;;;;20.23;10.63;;;;;;;11.30;47.33;100009.16;5370528;32;34449;-63
2022/03/29 03:44:59;;;;;;;21.70;11.67;;;;;;;12.14;45.23;100010.28;5359781;32;35417;-72
2022/03/29 03:48:03;;;;;;;25.93;11.73;;;;;;;11.52;46.48;100008.97;5376859;32;34175;-62
2022/03/29 03:51:05;;;;;;;26.60;11.47;;;;;;;10.95;48.37;100018.72;5353924;32;44619;-71
2022/03/29 03:54:07;;;;;;;28.87;11.47;;;;;;;10.66;49.28;100006.91;5373985;32;34969;-70
2022/03/29 03:57:09;;;;;;;23.20;10.80;;;;;;;10.99;48.23;100004.50;5359589;32;36090;-62
2022/03/29 04:00:12;;;;;;;20.10;10.93;;;;;;;11.28;47.60;100011.03;5368978;32;35370;-72
2022/03/29 04:03:14;;;;;;;20.52;10.73;;;;;;;11.35;47.51;99996.66;5369881;32;34291;-62
2022/03/29 04:06:16;;;;;;;22.17;11.70;;;;;;;11.18;47.69;99999.22;5355963;32;34166;-62
2022/03/29 04:09:18;;;;;;;21.83;10.93;;;;;;;11.27;47.67;99998.81;5361655;32;34156;-72
2022/03/29 04:12:20;;;;;;;20.00;10.70;;;;;;;11.03;48.07;99999.97;5362715;32;35181;-71
2022/03/29 04:15:23;;;;;;;25.90;12.30;;;;;;;11.35;47.27;99990.53;5369609;32;34112;-70
2022/03/29 04:18:25;;;;;;;23.13;11.43;;;;;;;11.29;47.50;99996.94;5352779;32;32938;-63
2022/03/29 04:21:28;;;;;;;25.27;11.60;;;;;;;11.56;46.68;99983.34;5363119;32;35388;-63
2022/03/29 04:24:34;;;;;;;24.17;11.77;;;;;;;11.83;45.95;99981.16;5365827;32;44676;-72
2022/03/29 04:27:37;;;;;;;26.43;11.10;;;;;;;11.42;47.36;99996.34;5348042;32;35655;-64
2022/03/29 04:30:39;;;;;;;29.47;12.43;;;;;;;12.10;45.46;99990.28;5370962;32;34191;-62
2022/03/29 04:33:44;;;;;;;33.83;12.27;;;;;;;11.07;48.10;99986.56;5362749;32;34241;-63
2022/03/29 04:36:46;;;;;;;21.87;11.30;;;;;;;11.58;47.04;99979.72;5373303;32;36171;-63
2022/03/29 04:39:49;;;;;;;30.40;13.27;;;;;;;12.48;44.62;99974.25;5338820;32;35460;-63
2022/03/29 04:42:52;;;;;;;27.00;11.20;;;;;;;12.08;45.36;99972.84;5363722;32;35355;-64
2022/03/29 04:45:54;;;;;;;33.60;12.20;;;;;;;11.81;46.15;99975.97;5369488;32;34738;-70
2022/03/29 04:48:56;;;;;;;26.60;12.23;;;;;;;11.44;47.29;99976.06;5355218;32;34150;-72
2022/03/29 04:52:06;;;;;;;23.30;11.93;;;;;;;11.19;48.28;99973.78;5375451;32;43224;-63
2022/03/29 04:55:08;;;;;;;25.17;11.17;;;;;;;11.19;48.06;99974.62;5361088;32;33968;-63
2022/03/29 04:58:10;;;;;;;23.73;13.10;;;;;;;11.47;47.16;99979.41;5371990;32;34105;-73
2022/03/29 05:01:13;;;;;;;23.77;12.57;;;;;;;11.35;47.52;99969.50;5357935;32;35966;-71
2022/03/29 05:04:15;;;;;;;33.03;12.73;;;;;;;11.29;47.98;99968.00;5354444;32;35488;-63
2022/03/29 05:07:17;;;;;;;30.57;12.93;;;;;;;12.04;46.26;99958.97;5372305;32;35428;-70
2022/03/29 05:10:19;;;;;;;21.90;11.80;;;;;;;11.69;46.98;99957.28;5360315;32;34143;-71
2022/03/29 05:13:21;;;;;;;25.00;11.77;;;;;;;12.40;45.41;99955.34;5375795;32;34303;-72
2022/03/29 05:16:24;;;;;;;22.47;11.50;;;;;;;12.97;43.41;99939.94;5353431;32;34704;-68
2022/03/29 05:19:26;;;;;;;29.10;12.93;;;;;;;12.96;43.34;99965.47;5362411;32;35402;-72
2022/03/29 05:22:28;;;;;;;36.00;12.77;;;;;;;12.51;44.59;99965.34;5362743;32;33988;-71
2022/03/29 05:25:32;;;;;;;34.20;12.53;;;;;;;11.78;46.61;99962.91;5359683;32;34080;-71
2022/03/29 05:28:34;;;;;;;21.33;11.68;;;;;;;12.05;46.21;99965.13;5353489;32;44706;-71
2022/03/29 05:31:36;;;;;;;44.50;14.97;;;;;;;12.73;44.54;99960.59;5359739;32;33973;-72
2022/03/29 05:34:39;;;;;;;22.60;12.00;;;;;;;13.59;41.93;99961.94;5358302;32;34420;-71
2022/03/29 05:37:41;;;;;;;28.43;12.17;;;;;;;13.85;41.72;99959.50;5350557;32;34215;-65
2022/03/29 05:40:43;;;;;;;29.17;13.10;;;;;;;14.22;40.61;99959.00;5346881;32;34082;-68
2022/03/29 05:43:49;;;;;;;27.60;12.33;;;;;;;13.70;41.54;99961.28;5355775;32;34317;-66
2022/03/29 05:50:13;;;;;;;33.70;13.73;;;;;;;15.79;36.78;99953.41;5359349;32;44378;-69
2022/03/29 05:53:15;;;;;;;26.07;13.23;;;;;;;15.28;37.79;99960.31;5357235;32;34054;-69
2022/03/29 05:56:17;;;;;;;26.80;13.33;;;;;;;16.09;36.43;99955.75;5368459;32;34072;-69
2022/03/29 05:59:19;;;;;;;27.60;14.17;;;;;;;16.92;35.01;99952.59;5360732;32;34081;-75
2022/03/29 06:02:24;;;;;;;35.60;14.82;;;;;;;17.16;34.36;99949.97;5353692;32;34095;-69
2022/03/29 06:05:27;;;;;;;28.08;13.88;;;;;;;16.31;35.54;99949.81;5370278;32;34105;-75
2022/03/29 06:08:31;;;;;;;35.72;15.13;;;;;;;15.08;38.27;99964.28;5357259;32;35252;-73
2022/03/29 06:11:33;;;;;;;27.45;14.40;;;;;;;16.52;35.82;99944.81;5366280;32;37152;-68
2022/03/29 06:14:35;;;;;;;22.83;13.57;;;;;;;18.18;32.02;99938.75;5347026;32;44585;-64
2022/03/29 06:17:38;;;;;;;28.90;13.80;;;;;;;16.09;35.87;99952.25;5363373;32;35190;-63
2022/03/29 06:20:40;;;;;;;26.73;15.60;;;;;;;16.56;35.33;99954.25;5345127;32;34149;-67
2022/03/29 06:23:43;;;;;;;32.05;14.82;;;;;;;16.53;35.23;99944.69;5350220;32;35374;-69
2022/03/29 06:26:50;;;;;;;28.27;14.13;;;;;;;15.64;37.03;99959.72;5362541;32;34179;-74
2022/03/29 06:29:56;;;;;;;30.50;16.27;;;;;;;16.75;34.70;99951.19;5356337;32;35910;-68
2022/03/29 06:32:59;;;;;;;29.05;14.95;;;;;;;15.96;36.32;99949.59;5364233;32;34508;-76
2022/03/29 06:36:01;;;;;;;29.98;15.50;;;;;;;17.10;34.29;99943.31;5359158;32;33654;-66
2022/03/29 06:39:05;;;;;;;32.80;15.63;;;;;;;17.24;33.71;99942.28;5367889;32;44700;-70
2022/03/29 06:42:08;;;;;;;30.25;15.73;;;;;;;17.32;33.81;99935.47;5373418;32;34179;-66
2022/03/29 06:45:10;;;;;;;30.37;15.02;;;;;;;17.22;34.14;99938.91;5360265;32;35376;-66
2022/03/29 06:48:13;;;;;;;29.87;15.13;;;;;;;16.39;35.56;99942.19;5349744;32;33992;-71
2022/03/29 06:51:16;;;;;;;29.67;14.52;;;;;;;16.99;34.94;99933.47;5341699;32;36327;-69
2022/03/29 06:54:18;;;;;;;27.10;15.10;;;;;;;18.48;31.97;99927.50;5362600;32;35322;-67
2022/03/29 06:57:20;;;;;;;29.20;15.35;;;;;;;17.17;34.03;99933.94;5353072;32;35335;-74
2022/03/29 07:00:25;;;;;;;27.25;15.80;;;;;;;19.18;31.07;99919.19;5359719;32;36188;-70
2022/03/29 07:03:29;;;;;;;31.02;15.13;;;;;;;18.41;31.76;99925.34;5360385;32;34167;-69
2022/03/29 07:06:32;;;;;;;33.20;17.87;;;;;;;18.52;31.96;99921.84;5347169;32;34059;-67
2022/03/29 07:12:57;;;;;;;41.67;16.40;;;;;;;18.21;32.56;99923.41;5348821;32;33757;-68
2022/03/29 07:15:59;;;;;;;41.92;18.37;;;;;;;20.15;29.46;99914.59;5367370;32;35292;-68
2022/03/29 07:19:01;;;;;;;31.48;15.35;;;;;;;19.12;31.15;99920.53;5367433;32;33993;-65
2022/03/29 07:22:03;;;;;;;29.63;14.98;;;;;;;18.40;32.31;99915.66;5365698;32;44699;-64
2022/03/29 07:25:06;;;;;;;35.17;15.75;;;;;;;18.79;31.35;99912.63;5370150;32;35942;-64
2022/03/29 07:28:11;;;;;;;33.47;15.50;;;;;;;19.64;29.90;99910.94;5357560;32;34029;-62
2022/03/29 07:31:14;;;;;;;33.53;16.00;;;;;;;21.39;26.94;99908.97;5367250;32;35893;-62
2022/03/29 07:34:16;;;;;;;;;;;;;;;20.83;27.80;99905.06;5357098;32;34490;-65
2022/03/29 07:37:19;;;;;;;33.45;14.68;;;;;;;22.25;25.09;99904.47;5357733;32;35519;-63
2022/03/29 07:40:24;;;;;;;48.35;16.50;;;;;;;20.59;27.36;99912.56;5328515;32;35716;-66
2022/03/29 07:43:26;;;;;;;31.62;15.23;;;;;;;21.84;25.87;99906.53;5359713;32;35032;-66
2022/03/29 07:46:29;;;;;;;25.12;15.10;;;;;;;20.04;28.66;99898.69;5377053;32;33172;-67
2022/03/29 07:49:31;;;;;;;45.15;16.77;;;;;;;20.24;28.55;99892.47;5366205;32;34248;-67
2022/03/29 07:52:54;;;;;;;41.55;15.85;;;;;;;20.53;28.11;99895.28;5374829;32;34477;-67
2022/03/29 07:55:56;;;;;;;28.75;16.45;;;;;;;22.27;25.53;99891.78;5365970;32;34188;-68
2022/03/29 07:58:58;;;;;;;28.02;15.07;;;;;;;20.71;27.64;99896.31;5365777;32;34146;-67
2022/03/29 08:02:00;;;;;;;36.88;16.37;;;;;;;21.97;26.09;99891.00;5361010;32;34153;-62
2022/03/29 08:05:02;;;;;;;26.95;14.40;;;;;;;21.29;26.67;99893.75;5356122;32;35335;-65
2022/03/29 08:08:05;;;;;;;30.62;16.52;;;;;;;22.43;25.35;99894.69;5355172;32;44321;-69
2022/03/29 08:11:11;;;;;;;30.10;14.93;;;;;;;21.90;25.75;99896.09;5353486;32;34366;-64
2022/03/29 08:14:14;;;;;;;29.95;15.23;;;;;;;23.11;24.33;99891.63;5351725;32;34169;-63
2022/03/29 08:17:16;;;;;;;24.98;15.38;;;;;;;23.99;23.32;99881.81;5350082;32;35369;-68
2022/03/29 08:20:19;;;;;;;30.75;15.43;;;;;;;24.07;23.17;99878.34;5349591;32;34063;-65
2022/03/29 08:23:22;;;;;;;33.10;18.80;;;;;;;24.83;21.95;99879.19;5356949;32;34209;-67
2022/03/29 08:26:24;;;;;;;28.10;14.73;;;;;;;22.60;24.79;99882.31;5350734;32;34681;-66
2022/03/29 08:29:29;;;;;;;34.75;15.00;;;;;;;22.73;24.64;99882.81;5372099;32;34050;-69
2022/03/29 08:32:32;;;;;;;30.42;15.35;;;;;;;23.03;24.40;99878.97;5359158;32;35355;-67
2022/03/29 08:35:37;;;;;;;30.20;14.55;;;;;;;24.62;22.31;99864.53;5363553;32;45900;-64
2022/03/29 08:38:39;;;;;;;25.48;14.50;;;;;;;24.14;22.51;99869.47;5346093;32;34118;-66
2022/03/29 08:41:48;;;;;;;25.05;15.45;;;;;;;23.54;22.98;99864.03;5348632;32;34113;-70
2022/03/29 08:44:50;;;;;;;25.30;14.82;;;;;;;26.52;19.78;99852.53;5358132;32;34085;-68
2022/03/29 08:47:56;;;;;;;25.42;14.25;;;;;;;26.34;19.69;99848.22;5350785;32;32589;-66
2022/03/29 08:51:00;;;;;;;22.70;13.77;;;;;;;27.62;18.17;99835.09;5365286;32;34745;-66
2022/03/29 08:54:22;;;;;;;25.90;14.68;;;;;;;26.87;18.71;99851.19;5339630;32;34523;-72
2022/03/29 08:57:25;;;;;;;31.45;15.13;;;;;;;26.38;19.36;99849.53;5335638;32;36444;-63
2022/03/29 09:00:27;;;;;;;21.73;13.62;;;;;;;24.31;21.57;99846.25;5365502;32;34853;-65
2022/03/29 09:03:29;;;;;;;;;;;;;;;26.68;18.39;99839.00;5353738;32;35153;-70
2022/03/29 09:06:32;;;;;;;22.80;14.27;;;;;;;24.49;20.49;99835.44;5354289;32;37642;-69
2022/03/29 09:09:37;;;;;;;27.37;14.50;;;;;;;23.54;22.37;99844.41;5333688;32;42820;-65
2022/03/29 09:12:39;;;;;;;29.30;14.27;;;;;;;23.94;21.71;99830.44;5358241;32;34279;-66
2022/03/29 09:15:45;;;;;;;21.42;14.20;;;;;;;24.14;21.66;99831.06;5361748;32;34784;-64
2022/03/29 09:18:55;;;;;;;28.70;14.68;;;;;;;25.76;19.95;99811.72;5329221;32;34151;-73
2022/03/29 09:21:59;;;;;;;30.65;15.43;;;;;;;26.56;19.05;99816.16;5359845;32;34318;-70
2022/03/29 09:25:02;;;;;;;24.00;14.38;;;;;;;26.68;19.21;99806.66;5352537;32;34692;-71
2022/03/29 09:28:10;;;;;;;26.60;14.70;;;;;;;27.25;18.22;99793.63;5372667;32;44551;-74
2022/03/29 09:31:22;;;;;;;26.65;14.45;;;;;;;27.91;17.76;99796.53;5350202;32;35493;-71
2022/03/29 09:34:24;;;;;;;24.65;15.02;;;;;;;27.18;18.50;99798.06;5368097;32;34193;-66
2022/03/29 09:37:34;;;;;;;36.08;15.38;;;;;;;28.09;17.45;99792.63;5367219;32;34113;-76
2022/03/29 09:40:40;;;;;;;25.15;14.87;;;;;;;28.69;17.00;99789.63;5349946;32;47273;-70
2022/03/29 09:43:43;;;;;;;27.00;16.25;;;;;;;27.25;18.15;99793.63;5341150;32;35266;-67
2022/03/29 09:46:56;;;;;;;29.63;15.20;;;;;;;27.94;17.89;99779.09;5361170;32;36855;-66
2022/03/29 09:50:04;;;;;;;23.95;13.50;;;;;;;27.42;18.03;99786.19;5369884;32;34995;-63
2022/03/29 09:53:06;;;;;;;26.05;14.30;;;;;;;26.25;18.90;99784.62;5357960;32;44820;-61
2022/03/29 09:56:11;;;;;;;;;;;;;;;28.03;17.11;99761.81;5370152;32;34205;-67
2022/03/29 09:59:33;;;;;;;22.73;12.15;;;;;;;26.64;18.61;99773.81;5362276;32;35749;-70
2022/03/29 10:02:37;;;;;;;21.08;13.45;;;;;;;27.84;17.25;99770.47;5342394;32;44820;-70
2022/03/29 10:05:42;;;;;;;26.92;14.00;;;;;;;28.36;16.81;99762.22;5359905;32;35180;-68
2022/03/29 10:12:09;;;;;;;16.27;9.18;;;;;;;29.63;12.92;99744.31;5362699;32;44748;-70
2022/03/29 10:15:12;;;;;;;23.87;9.60;;;;;;;27.96;13.94;99750.91;5358338;32;36351;-70
2022/03/29 10:18:15;;;;;;;23.08;9.95;;;;;;;27.15;14.43;99747.16;5339825;32;35251;-69
2022/03/29 10:21:17;;;;;;;17.10;9.07;;;;;;;29.05;12.77;99735.53;5372662;32;35352;-66
2022/03/29 10:24:19;;;;;;;;;;;;;;;26.37;15.10;99748.19;5364889;32;35586;-65
2022/03/29 10:27:22;;;;;;;18.20;9.48;;;;;;;27.33;14.20;99737.91;5357581;32;35501;-63
2022/03/29 10:30:39;;;;;;;19.08;10.13;;;;;;;27.95;13.95;99733.03;5367256;32;33926;-68
2022/03/29 10:33:44;;;;;;;20.30;10.25;;;;;;;29.56;12.45;99724.47;5364964;32;46728;-70
2022/03/29 10:37:01;;;;;;;19.73;11.35;;;;;;;29.09;12.50;99720.56;5370716;32;34223;-68
2022/03/29 10:40:04;;;;;;;18.55;10.75;;;;;;;28.98;13.00;99722.94;5342538;32;35307;-70
2022/03/29 10:43:41;;;;;;;22.75;10.93;;;;;;;30.59;11.75;99705.50;5364748;32;44561;-69
2022/03/29 10:46:47;;;;;;;19.90;11.30;;;;;;;32.10;10.45;99694.72;5343206;32;44487;-73
2022/03/29 10:49:52;;;;;;;24.12;11.93;;;;;;;29.21;12.63;99706.50;5361213;32;35163;-66
2022/03/29 10:52:54;;;;;;;20.60;12.07;;;;;;;30.28;12.05;99692.53;5371613;32;35402;-65
2022/03/29 10:56:15;;;;;;;19.58;12.30;;;;;;;30.00;12.05;99692.59;5365596;32;33953;-69
2022/03/29 10:59:17;;;;;;;29.73;13.62;;;;;;;28.06;13.68;99693.88;5359500;32;34302;-70
2022/03/29 11:02:20;;;;;;;23.80;12.07;;;;;;;28.58;13.61;99682.81;5371699;32;34234;-71
2022/03/29 11:05:22;;;;;;;24.52;12.00;;;;;;;27.57;14.36;99680.16;5364179;32;34351;-67
2022/03/29 11:08:29;;;;;;;21.23;11.43;;;;;;;26.28;14.66;99681.94;5367995;32;36090;-65
2022/03/29 11:11:41;;;;;;;19.85;12.05;;;;;;;26.94;14.73;99663.41;5361697;32;34885;-69
2022/03/29 11:14:43;;;;;;;20.12;11.07;;;;;;;28.91;13.24;99657.94;5361021;32;44399;-66
2022/03/29 11:17:46;;;;;;;21.58;11.20;;;;;;;28.55;13.56;99641.84;5358823;32;35496;-67
2022/03/29 11:20:56;;;;;;;19.37;11.50;;;;;;;27.86;13.72;99646.91;5362343;32;36021;-65
2022/03/29 11:24:00;;;;;;;23.50;12.55;;;;;;;26.46;14.38;99642.06;5364269;32;34244;-64
2022/03/29 11:27:03;;;;;;;22.65;11.75;;;;;;;27.26;13.53;99628.03;5354445;32;34006;-66
2022/03/29 11:30:07;;;;;;;20.90;12.20;;;;;;;27.78;13.11;99632.50;5370348;32;44492;-64
2022/03/29 11:33:10;;;;;;;27.30;12.40;;;;;;;26.82;13.73;99629.81;5339563;32;35720;-70
2022/03/29 11:36:13;;;;;;;22.83;12.13;;;;;;;27.00;13.77;99625.75;5351976;32;35553;-65
2022/03/29 11:39:23;;;;;;;25.02;12.32;;;;;;;27.34;13.36;99615.47;5352328;32;36034;-66
2022/03/29 11:42:41;;;;;;;20.83;12.37;;;;;;;26.99;13.12;99612.47;5347906;32;34100;-67
2022/03/29 11:45:47;;;;;;;20.67;12.20;;;;;;;27.03;12.91;99602.97;5361318;32;45048;-71
2022/03/29 11:48:50;;;;;;;29.45;12.80;;;;;;;28.22;12.22;99604.50;5342808;32;34026;-70
2022/03/29 11:52:13;;;;;;;23.15;12.65;;;;;;;29.05;11.40;99597.56;5371182;32;34144;-67
2022/03/29 11:55:16;;;;;;;25.02;14.02;;;;;;;27.82;12.54;99599.69;5367637;32;34712;-67
2022/03/29 11:58:21;;;;;;;23.30;12.57;;;;;;;27.20;13.10;99592.88;5345840;32;34125;-71
2022/03/29 12:01:27;;;;;;;23.20;13.20;;;;;;;27.91;12.84;99591.31;5357800;32;35266;-69
2022/03/29 12:04:32;;;;;;;21.55;12.70;;;;;;;26.18;14.07;99592.44;5352640;32;36055;-69
2022/03/29 12:07:45;;;;;;;19.77;11.52;;;;;;;26.27;13.83;99590.50;5360840;32;46021;-70
2022/03/29 12:10:47;;;;;;;;;;;;;;;26.41;13.94;99577.13;5360391;32;34078;-69
2022/03/29 12:14:12;;;;;;;24.20;12.17;;;;;;;25.25;15.14;99581.66;5354315;32;36526;-72
2022/03/29 12:17:14;;;;;;;19.87;12.40;;;;;;;26.91;13.73;99562.12;5368459;32;34315;-72
2022/03/29 12:20:32;;;;;;;25.98;13.07;;;;;;;27.12;13.42;99564.16;5353621;32;34167;-71
2022/03/29 12:23:34;;;;;;;27.20;12.48;;;;;;;28.74;12.11;99557.38;5369396;32;44598;-69
2022/03/29 12:26:41;;;;;;;;;;;;;;;27.75;12.60;99551.03;5364607;32;35666;-70
2022/03/29 12:29:50;;;;;;;24.12;12.65;;;;;;;27.00;13.44;99554.81;5356513;32;36864;-68
2022/03/29 12:32:52;;;;;;;22.20;12.80;;;;;;;27.76;12.76;99553.56;5368792;32;34097;-70
2022/03/29 12:36:04;;;;;;;22.35;12.68;;;;;;;26.39;14.15;99551.34;5355947;32;35956;-70
2022/03/29 12:39:08;;;;;;;21.17;12.32;;;;;;;26.54;14.10;99541.50;5348470;32;44699;-72
2022/03/29 12:42:15;;;;;;;19.27;12.25;;;;;;;28.37;12.58;99534.22;5340044;32;35456;-71
2022/03/29 12:45:18;;;;;;;21.75;12.18;;;;;;;26.35;13.74;99526.66;5359263;32;35868;-71
2022/03/29 12:48:22;;;;;;;20.67;11.70;;;;;;;29.90;11.32;99519.63;5365844;32;37283;-74
2022/03/29 12:51:27;;;;;;;23.73;12.20;;;;;;;27.88;12.37;99529.56;5349387;32;35505;-70
2022/03/29 12:54:36;;;;;;;22.05;11.80;;;;;;;27.78;12.76;99521.78;5358043;32;34020;-72
2022/03/29 12:57:41;;;;;;;23.30;12.30;;;;;;;28.48;12.13;99505.81;5350766;32;44181;-67
2022/03/29 13:00:44;;;;;;;19.60;12.05;;;;;;;29.94;11.25;99491.06;5368863;32;34061;-65
2022/03/29 13:03:46;;;;;;;22.55;12.02;;;;;;;31.74;9.81;99487.72;5349569;32;34120;-72
2022/03/29 13:06:48;;;;;;;17.70;11.73;;;;;;;29.84;10.93;99493.34;5349450;32;34313;-68
2022/03/29 13:10:00;;;;;;;18.90;10.68;;;;;;;30.01;10.91;99474.81;5371115;32;35359;-69
2022/03/29 13:13:29;;;;;;;17.08;10.57;;;;;;;30.06;10.43;99484.00;5345964;32;34469;-65
2022/03/29 13:16:32;;;;;;;29.67;11.63;;;;;;;28.60;11.26;99482.63;5363072;32;34371;-69
2022/03/29 13:19:34;;;;;;;20.08;10.93;;;;;;;28.85;11.18;99488.34;5358746;32;43598;-66
2022/03/29 13:22:44;;;;;;;21.65;10.43;;;;;;;27.83;11.82;99482.59;5361404;32;35458;-66
2022/03/29 13:25:47;;;;;;;24.65;12.02;;;;;;;28.16;11.84;99480.19;5359387;32;215595;-63
2022/03/29 13:28:51;;;;;;;19.10;10.68;;;;;;;28.12;11.89;99471.62;5356456;32;34306;-73
2022/03/29 13:31:53;;;;;;;21.92;10.05;;;;;;;26.57;13.11;99472.91;5360674;32;35894;-70
2022/03/29 13:34:56;;;;;;;20.30;10.73;;;;;;;25.10;13.81;99468.59;5358679;32;34022;-72
2022/03/29 13:37:58;;;;;;;19.10;9.88;;;;;;;25.19;14.01;99462.19;5361442;32;34255;-70
2022/03/29 13:41:00;;;;;;;21.85;10.23;;;;;;;25.95;13.63;99463.19;5353685;32;35725;-67
2022/03/29 13:44:03;;;;;;;18.65;9.48;;;;;;;25.45;14.17;99461.03;5360578;32;35319;-67
2022/03/29 13:47:06;;;;;;;24.73;14.15;;;;;;;24.62;15.07;99465.06;5355081;32;44046;-68
2022/03/29 13:50:09;;;;;;;23.25;10.93;;;;;;;24.64;15.12;99457.66;5360731;32;35870;-69
2022/03/29 13:53:11;;;;;;;26.40;10.07;;;;;;;23.88;16.07;99458.91;5376441;32;34514;-69
2022/03/29 13:56:14;;;;;;;19.62;9.23;;;;;;;24.39;15.58;99450.69;5364975;32;36376;-67
2022/03/29 13:59:17;;;;;;;23.77;10.48;;;;;;;25.18;14.98;99454.28;5361791;32;34173;-71
2022/03/29 14:02:20;;;;;;;22.33;9.68;;;;;;;23.35;16.45;99448.62;5345632;32;34652;-72
2022/03/29 14:05:22;;;;;;;18.17;9.48;;;;;;;24.41;15.53;99433.41;5350011;32;35896;-68
2022/03/29 14:08:27;;;;;;;17.23;9.60;;;;;;;24.75;15.25;99440.34;5365557;32;35592;-67
2022/03/29 14:11:29;;;;;;;19.83;9.93;;;;;;;24.76;15.38;99439.34;5345515;32;34146;-70
2022/03/29 14:14:32;;;;;;;;;;;;;;;24.61;15.31;99435.69;5364098;32;35432;-68
2022/03/29 14:17:34;;;;;;;26.02;10.45;;;;;;;24.21;15.52;99437.41;5351876;32;44554;-67